Tompkins Corners, New York
Current Conditions -  °F | °C
As of 8:45 PM on Friday 28 Nov 2014 (Local Time) from KSWF Reporting Station
Clear Clear  
Wind Chill: 19°   Ceiling: Unl
Heat Index: 19°   Visibility: 10mi
Dew Point: 16°   Wind: 0mph
Humidity: 86%   Direction: NA
Pressure: 30.24"   Gusts: NA
Location:  41.3969°N, 73.8382°W
Report Text: KSWF 290145Z 00000KT 10SM SKC M07/M09 A3024
Loading
Personal Weather Stations






























Interactive Weather Map New forecast layout! Learn more

10-Day Weather Forecast

Advertisements
Track Severe Weather on mobile